sensor_id;sensor_type;location;lat;lon;timestamp;pressure;altitude;pressure_sealevel;temperature;humidity
40171;BME280;37650;52.790;18.268;2023-05-29T00:00:21;100872.55;;;12.18;63.68
40171;BME280;37650;52.790;18.268;2023-05-29T00:03:58;100871.39;;;12.06;64.14
40171;BME280;37650;52.790;18.268;2023-05-29T00:07:19;100868.11;;;12.00;64.31
40171;BME280;37650;52.790;18.268;2023-05-29T00:10:39;100864.54;;;11.91;64.67
40171;BME280;37650;52.790;18.268;2023-05-29T00:14:00;100862.11;;;11.85;65.14
40171;BME280;37650;52.790;18.268;2023-05-29T00:17:21;100859.81;;;11.81;65.53
40171;BME280;37650;52.790;18.268;2023-05-29T00:20:41;100860.48;;;11.77;65.73
40171;BME280;37650;52.790;18.268;2023-05-29T00:24:02;100859.06;;;11.72;65.63
40171;BME280;37650;52.790;18.268;2023-05-29T00:27:22;100861.84;;;11.67;65.60
40171;BME280;37650;52.790;18.268;2023-05-29T00:30:43;100861.40;;;11.64;65.85
40171;BME280;37650;52.790;18.268;2023-05-29T00:34:03;100860.55;;;11.64;66.35
40171;BME280;37650;52.790;18.268;2023-05-29T00:37:24;100861.83;;;11.57;66.60
40171;BME280;37650;52.790;18.268;2023-05-29T00:40:45;100864.36;;;11.50;66.77
40171;BME280;37650;52.790;18.268;2023-05-29T00:44:06;100865.11;;;11.37;66.93
40171;BME280;37650;52.790;18.268;2023-05-29T00:47:27;100870.54;;;11.26;67.46
40171;BME280;37650;52.790;18.268;2023-05-29T00:50:48;100874.55;;;11.17;67.82
40171;BME280;37650;52.790;18.268;2023-05-29T00:54:12;100870.85;;;11.12;68.45
40171;BME280;37650;52.790;18.268;2023-05-29T00:57:34;100867.91;;;11.05;68.73
40171;BME280;37650;52.790;18.268;2023-05-29T01:00:54;100861.34;;;10.96;69.02
40171;BME280;37650;52.790;18.268;2023-05-29T01:04:15;100864.88;;;10.89;69.18
40171;BME280;37650;52.790;18.268;2023-05-29T01:07:37;100864.65;;;10.85;69.55
40171;BME280;37650;52.790;18.268;2023-05-29T01:11:06;100867.39;;;10.82;69.89
40171;BME280;37650;52.790;18.268;2023-05-29T01:18:26;100875.85;;;10.75;70.76
40171;BME280;37650;52.790;18.268;2023-05-29T01:22:11;100877.61;;;10.69;71.15
40171;BME280;37650;52.790;18.268;2023-05-29T01:29:29;100886.16;;;10.65;71.75
40171;BME280;37650;52.790;18.268;2023-05-29T01:32:51;100884.30;;;10.56;71.59
40171;BME280;37650;52.790;18.268;2023-05-29T01:36:12;100881.37;;;10.54;71.80
40171;BME280;37650;52.790;18.268;2023-05-29T01:39:33;100884.19;;;10.60;71.82
40171;BME280;37650;52.790;18.268;2023-05-29T01:42:54;100890.25;;;10.63;72.08
40171;BME280;37650;52.790;18.268;2023-05-29T01:46:16;100889.52;;;10.64;72.13
40171;BME280;37650;52.790;18.268;2023-05-29T01:49:38;100885.13;;;10.64;72.11
40171;BME280;37650;52.790;18.268;2023-05-29T01:53:02;100886.09;;;10.67;72.38
40171;BME280;37650;52.790;18.268;2023-05-29T01:56:23;100886.12;;;10.72;72.42
40171;BME280;37650;52.790;18.268;2023-05-29T01:59:44;100884.77;;;10.76;72.23
40171;BME280;37650;52.790;18.268;2023-05-29T02:03:05;100877.28;;;10.80;72.27
40171;BME280;37650;52.790;18.268;2023-05-29T02:06:25;100878.80;;;10.87;72.30
40171;BME280;37650;52.790;18.268;2023-05-29T02:09:46;100876.08;;;10.90;72.40
40171;BME280;37650;52.790;18.268;2023-05-29T02:13:06;100874.14;;;10.90;72.50
40171;BME280;37650;52.790;18.268;2023-05-29T02:16:26;100873.87;;;10.88;72.51
40171;BME280;37650;52.790;18.268;2023-05-29T02:19:48;100878.89;;;10.85;72.53
40171;BME280;37650;52.790;18.268;2023-05-29T02:23:09;100877.09;;;10.80;72.71
40171;BME280;37650;52.790;18.268;2023-05-29T02:26:29;100879.05;;;10.79;72.89
40171;BME280;37650;52.790;18.268;2023-05-29T02:29:50;100876.52;;;10.75;72.90
40171;BME280;37650;52.790;18.268;2023-05-29T02:33:11;100873.38;;;10.75;73.14
40171;BME280;37650;52.790;18.268;2023-05-29T02:36:31;100875.70;;;10.74;73.32
40171;BME280;37650;52.790;18.268;2023-05-29T02:39:52;100876.61;;;10.73;73.23
40171;BME280;37650;52.790;18.268;2023-05-29T02:43:13;100874.48;;;10.68;73.33
40171;BME280;37650;52.790;18.268;2023-05-29T02:46:35;100876.61;;;10.67;73.39
40171;BME280;37650;52.790;18.268;2023-05-29T02:49:55;100873.58;;;10.63;73.47
40171;BME280;37650;52.790;18.268;2023-05-29T02:53:15;100872.79;;;10.60;73.59
40171;BME280;37650;52.790;18.268;2023-05-29T02:56:36;100873.98;;;10.62;73.87
40171;BME280;37650;52.790;18.268;2023-05-29T02:59:56;100870.60;;;10.63;73.80
40171;BME280;37650;52.790;18.268;2023-05-29T03:03:16;100868.43;;;10.65;73.88
40171;BME280;37650;52.790;18.268;2023-05-29T03:06:37;100862.04;;;10.68;73.83
40171;BME280;37650;52.790;18.268;2023-05-29T03:09:58;100865.05;;;10.67;74.00
40171;BME280;37650;52.790;18.268;2023-05-29T03:13:19;100858.50;;;10.69;74.34
40171;BME280;37650;52.790;18.268;2023-05-29T03:16:48;100860.83;;;10.73;74.63
40171;BME280;37650;52.790;18.268;2023-05-29T03:20:10;100864.55;;;10.77;74.59
40171;BME280;37650;52.790;18.268;2023-05-29T03:23:31;100863.33;;;10.77;74.56
40171;BME280;37650;52.790;18.268;2023-05-29T03:26:52;100865.13;;;10.81;74.80
40171;BME280;37650;52.790;18.268;2023-05-29T03:30:13;100869.73;;;10.86;75.12
40171;BME280;37650;52.790;18.268;2023-05-29T03:33:34;100867.83;;;10.90;75.17
40171;BME280;37650;52.790;18.268;2023-05-29T03:37:27;100871.06;;;10.99;75.56
40171;BME280;37650;52.790;18.268;2023-05-29T03:40:49;100870.35;;;11.06;75.47
40171;BME280;37650;52.790;18.268;2023-05-29T03:44:09;100872.10;;;11.11;75.72
40171;BME280;37650;52.790;18.268;2023-05-29T03:47:29;100875.59;;;11.17;75.72
40171;BME280;37650;52.790;18.268;2023-05-29T03:50:51;100875.70;;;11.25;75.60
40171;BME280;37650;52.790;18.268;2023-05-29T03:54:17;100877.48;;;11.35;75.60
40171;BME280;37650;52.790;18.268;2023-05-29T03:58:12;100881.37;;;11.51;75.64
40171;BME280;37650;52.790;18.268;2023-05-29T04:01:34;100889.16;;;11.70;75.71
40171;BME280;37650;52.790;18.268;2023-05-29T04:04:55;100888.20;;;11.83;75.17
40171;BME280;37650;52.790;18.268;2023-05-29T04:08:16;100892.59;;;11.94;74.56
40171;BME280;37650;52.790;18.268;2023-05-29T04:11:37;100888.58;;;12.03;73.97
40171;BME280;37650;52.790;18.268;2023-05-29T04:14:59;100890.59;;;12.10;73.76
40171;BME280;37650;52.790;18.268;2023-05-29T04:18:20;100893.25;;;12.19;73.68
40171;BME280;37650;52.790;18.268;2023-05-29T04:21:42;100889.64;;;12.27;73.40
40171;BME280;37650;52.790;18.268;2023-05-29T04:25:04;100886.61;;;12.34;73.24
40171;BME280;37650;52.790;18.268;2023-05-29T04:28:25;100881.66;;;12.44;73.37
40171;BME280;37650;52.790;18.268;2023-05-29T04:31:47;100887.59;;;12.55;73.06
40171;BME280;37650;52.790;18.268;2023-05-29T04:35:09;100889.72;;;12.63;73.11
40171;BME280;37650;52.790;18.268;2023-05-29T04:38:35;100892.94;;;12.67;72.99
40171;BME280;37650;52.790;18.268;2023-05-29T04:41:57;100893.55;;;12.70;73.45
40171;BME280;37650;52.790;18.268;2023-05-29T04:45:21;100896.20;;;12.73;73.22
40171;BME280;37650;52.790;18.268;2023-05-29T04:48:43;100894.88;;;12.81;73.16
40171;BME280;37650;52.790;18.268;2023-05-29T04:52:04;100899.03;;;12.91;73.26
40171;BME280;37650;52.790;18.268;2023-05-29T04:55:26;100897.23;;;13.01;72.88
40171;BME280;37650;52.790;18.268;2023-05-29T04:58:47;100897.92;;;13.12;72.73
40171;BME280;37650;52.790;18.268;2023-05-29T05:02:07;100899.98;;;13.22;72.65
40171;BME280;37650;52.790;18.268;2023-05-29T05:05:27;100904.16;;;13.32;72.40
40171;BME280;37650;52.790;18.268;2023-05-29T05:08:51;100902.69;;;13.38;72.33
40171;BME280;37650;52.790;18.268;2023-05-29T05:12:13;100899.84;;;13.47;71.97
40171;BME280;37650;52.790;18.268;2023-05-29T05:15:34;100898.88;;;13.58;72.09
40171;BME280;37650;52.790;18.268;2023-05-29T05:18:55;100902.98;;;13.65;72.00
40171;BME280;37650;52.790;18.268;2023-05-29T05:22:16;100902.49;;;13.73;72.01
40171;BME280;37650;52.790;18.268;2023-05-29T05:25:37;100903.80;;;13.87;71.74
40171;BME280;37650;52.790;18.268;2023-05-29T05:28:59;100902.06;;;14.03;71.34
40171;BME280;37650;52.790;18.268;2023-05-29T05:32:22;100897.70;;;14.23;71.29
40171;BME280;37650;52.790;18.268;2023-05-29T05:35:48;100900.34;;;14.43;70.84
40171;BME280;37650;52.790;18.268;2023-05-29T05:39:09;100905.98;;;14.74;70.93
40171;BME280;37650;52.790;18.268;2023-05-29T05:42:30;100898.80;;;14.99;70.05
40171;BME280;37650;52.790;18.268;2023-05-29T05:46:00;100904.94;;;15.15;69.05
40171;BME280;37650;52.790;18.268;2023-05-29T05:49:22;100907.12;;;15.36;68.63
40171;BME280;37650;52.790;18.268;2023-05-29T05:52:42;100913.75;;;15.52;68.22
40171;BME280;37650;52.790;18.268;2023-05-29T05:56:04;100909.04;;;15.76;67.79
40171;BME280;37650;52.790;18.268;2023-05-29T05:59:25;100911.65;;;16.02;67.30
40171;BME280;37650;52.790;18.268;2023-05-29T06:02:47;100914.86;;;16.28;66.37
40171;BME280;37650;52.790;18.268;2023-05-29T06:06:16;100915.45;;;16.44;65.58
40171;BME280;37650;52.790;18.268;2023-05-29T06:09:37;100913.64;;;16.72;64.47
40171;BME280;37650;52.790;18.268;2023-05-29T06:12:58;100905.61;;;16.89;63.82
40171;BME280;37650;52.790;18.268;2023-05-29T06:16:23;100908.83;;;17.23;63.75
40171;BME280;37650;52.790;18.268;2023-05-29T06:19:47;100908.39;;;17.50;62.24
40171;BME280;37650;52.790;18.268;2023-05-29T06:23:14;100909.96;;;17.66;61.70
40171;BME280;37650;52.790;18.268;2023-05-29T06:26:36;100913.55;;;17.89;60.79
40171;BME280;37650;52.790;18.268;2023-05-29T06:29:58;100914.07;;;18.16;60.29
40171;BME280;37650;52.790;18.268;2023-05-29T06:33:22;100913.32;;;18.46;59.91
40171;BME280;37650;52.790;18.268;2023-05-29T06:36:44;100915.54;;;18.71;58.95
40171;BME280;37650;52.790;18.268;2023-05-29T06:40:05;100918.67;;;18.86;58.24
40171;BME280;37650;52.790;18.268;2023-05-29T06:43:27;100916.70;;;19.03;57.75
40171;BME280;37650;52.790;18.268;2023-05-29T06:46:50;100916.69;;;19.36;57.25
40171;BME280;37650;52.790;18.268;2023-05-29T06:50:14;100918.93;;;19.72;56.72
40171;BME280;37650;52.790;18.268;2023-05-29T06:53:35;100920.73;;;19.91;55.49
40171;BME280;37650;52.790;18.268;2023-05-29T06:56:56;100923.65;;;20.08;54.75
40171;BME280;37650;52.790;18.268;2023-05-29T07:00:17;100926.05;;;20.33;54.16
40171;BME280;37650;52.790;18.268;2023-05-29T07:03:46;100920.27;;;20.50;53.14
40171;BME280;37650;52.790;18.268;2023-05-29T07:07:08;100918.87;;;20.57;52.05
40171;BME280;37650;52.790;18.268;2023-05-29T07:10:29;100916.08;;;20.74;51.41
40171;BME280;37650;52.790;18.268;2023-05-29T07:13:56;100917.81;;;20.92;51.32
40171;BME280;37650;52.790;18.268;2023-05-29T07:17:19;100921.93;;;21.29;50.73
40171;BME280;37650;52.790;18.268;2023-05-29T07:20:44;100925.17;;;21.60;49.90
40171;BME280;37650;52.790;18.268;2023-05-29T07:24:07;100918.09;;;21.66;48.40
40171;BME280;37650;52.790;18.268;2023-05-29T07:27:29;100913.90;;;21.76;48.15
40171;BME280;37650;52.790;18.268;2023-05-29T07:30:50;100913.09;;;21.82;47.06
40171;BME280;37650;52.790;18.268;2023-05-29T07:34:10;100914.59;;;21.98;47.16
40171;BME280;37650;52.790;18.268;2023-05-29T07:37:31;100912.63;;;22.26;46.53
40171;BME280;37650;52.790;18.268;2023-05-29T07:40:53;100915.44;;;22.45;45.59
40171;BME280;37650;52.790;18.268;2023-05-29T07:44:22;100917.73;;;22.68;45.12
40171;BME280;37650;52.790;18.268;2023-05-29T07:47:42;100913.45;;;22.95;45.20
40171;BME280;37650;52.790;18.268;2023-05-29T07:51:02;100908.64;;;23.23;44.13
40171;BME280;37650;52.790;18.268;2023-05-29T07:54:26;100906.69;;;23.38;43.89
40171;BME280;37650;52.790;18.268;2023-05-29T07:57:48;100910.02;;;23.63;43.24
40171;BME280;37650;52.790;18.268;2023-05-29T08:01:09;100913.70;;;23.53;41.75
40171;BME280;37650;52.790;18.268;2023-05-29T08:04:30;100925.09;;;23.56;42.30
40171;BME280;37650;52.790;18.268;2023-05-29T08:07:51;100922.79;;;23.71;42.09
40171;BME280;37650;52.790;18.268;2023-05-29T08:11:12;100921.78;;;23.91;41.29
40171;BME280;37650;52.790;18.268;2023-05-29T08:14:33;100925.13;;;24.11;41.91
40171;BME280;37650;52.790;18.268;2023-05-29T08:17:55;100928.91;;;24.36;41.56
40171;BME280;37650;52.790;18.268;2023-05-29T08:21:15;100929.75;;;24.57;40.98
40171;BME280;37650;52.790;18.268;2023-05-29T08:24:36;100926.83;;;24.58;40.74
40171;BME280;37650;52.790;18.268;2023-05-29T08:27:57;100925.73;;;24.68;40.54
40171;BME280;37650;52.790;18.268;2023-05-29T08:31:17;100932.23;;;24.80;40.67
40171;BME280;37650;52.790;18.268;2023-05-29T08:34:38;100939.16;;;24.99;39.89
40171;BME280;37650;52.790;18.268;2023-05-29T08:37:59;100937.36;;;25.19;40.26
40171;BME280;37650;52.790;18.268;2023-05-29T08:41:42;100943.44;;;25.53;39.56
40171;BME280;37650;52.790;18.268;2023-05-29T08:45:06;100941.41;;;25.48;38.63
40171;BME280;37650;52.790;18.268;2023-05-29T08:48:31;100945.91;;;25.76;38.61
40171;BME280;37650;52.790;18.268;2023-05-29T08:51:57;100945.42;;;25.77;37.83
40171;BME280;37650;52.790;18.268;2023-05-29T08:55:22;100945.52;;;25.95;37.81
40171;BME280;37650;52.790;18.268;2023-05-29T08:58:43;100946.57;;;25.97;36.99
40171;BME280;37650;52.790;18.268;2023-05-29T09:02:11;100946.40;;;25.90;36.80
40171;BME280;37650;52.790;18.268;2023-05-29T09:05:31;100951.70;;;25.96;36.21
40171;BME280;37650;52.790;18.268;2023-05-29T09:08:55;100948.95;;;25.99;36.02
40171;BME280;37650;52.790;18.268;2023-05-29T09:12:17;100954.19;;;26.28;35.62
40171;BME280;37650;52.790;18.268;2023-05-29T09:15:37;100956.13;;;26.59;35.65
40171;BME280;37650;52.790;18.268;2023-05-29T09:19:06;100949.98;;;26.76;34.62
40171;BME280;37650;52.790;18.268;2023-05-29T09:22:29;100950.77;;;26.67;34.64
40171;BME280;37650;52.790;18.268;2023-05-29T09:25:53;100951.41;;;26.83;34.67
40171;BME280;37650;52.790;18.268;2023-05-29T09:29:15;100948.00;;;27.14;34.49
40171;BME280;37650;52.790;18.268;2023-05-29T09:32:36;100948.04;;;27.33;34.10
40171;BME280;37650;52.790;18.268;2023-05-29T09:36:19;100940.30;;;27.33;33.22
40171;BME280;37650;52.790;18.268;2023-05-29T09:39:45;100941.02;;;27.25;33.04
40171;BME280;37650;52.790;18.268;2023-05-29T09:43:11;100945.67;;;27.13;33.13
40171;BME280;37650;52.790;18.268;2023-05-29T09:46:34;100938.60;;;26.80;33.54
40171;BME280;37650;52.790;18.268;2023-05-29T09:49:54;100942.67;;;26.75;33.43
40171;BME280;37650;52.790;18.268;2023-05-29T09:53:26;100943.46;;;26.72;34.23
40171;BME280;37650;52.790;18.268;2023-05-29T09:56:50;100936.98;;;27.18;33.89
40171;BME280;37650;52.790;18.268;2023-05-29T10:00:14;100936.04;;;27.19;33.53
40171;BME280;37650;52.790;18.268;2023-05-29T10:03:36;100926.87;;;27.39;33.27
40171;BME280;37650;52.790;18.268;2023-05-29T10:06:57;100929.14;;;27.33;32.81
40171;BME280;37650;52.790;18.268;2023-05-29T10:10:24;100927.98;;;27.44;33.09
40171;BME280;37650;52.790;18.268;2023-05-29T10:13:48;100934.25;;;27.70;32.59
40171;BME280;37650;52.790;18.268;2023-05-29T10:17:13;100937.08;;;27.56;32.64
40171;BME280;37650;52.790;18.268;2023-05-29T10:20:35;100932.88;;;27.51;32.35
40171;BME280;37650;52.790;18.268;2023-05-29T10:23:57;100938.92;;;27.55;32.55
40171;BME280;37650;52.790;18.268;2023-05-29T10:27:18;100935.34;;;27.50;31.65
40171;BME280;37650;52.790;18.268;2023-05-29T10:30:54;100927.39;;;27.21;31.58
40171;BME280;37650;52.790;18.268;2023-05-29T10:38:01;100926.23;;;27.76;31.87
40171;BME280;37650;52.790;18.268;2023-05-29T10:44:46;100922.08;;;27.24;31.45
40171;BME280;37650;52.790;18.268;2023-05-29T10:51:32;100925.83;;;26.56;32.51
40171;BME280;37650;52.790;18.268;2023-05-29T10:54:54;100922.48;;;26.20;32.85
40171;BME280;37650;52.790;18.268;2023-05-29T10:58:18;100919.27;;;26.26;33.88
40171;BME280;37650;52.790;18.268;2023-05-29T11:01:39;100917.92;;;26.52;33.30
40171;BME280;37650;52.790;18.268;2023-05-29T11:05:21;100918.20;;;26.44;33.67
40171;BME280;37650;52.790;18.268;2023-05-29T11:08:47;100915.63;;;26.10;33.84
40171;BME280;37650;52.790;18.268;2023-05-29T11:12:20;100911.86;;;25.90;34.02
40171;BME280;37650;52.790;18.268;2023-05-29T11:16:19;100907.34;;;26.09;34.69
40171;BME280;37650;52.790;18.268;2023-05-29T11:19:46;100904.55;;;26.86;33.92
40171;BME280;37650;52.790;18.268;2023-05-29T11:23:07;100896.21;;;27.12;33.66
40171;BME280;37650;52.790;18.268;2023-05-29T11:26:29;100892.74;;;27.38;33.59
40171;BME280;37650;52.790;18.268;2023-05-29T11:29:50;100893.03;;;27.99;33.22
40171;BME280;37650;52.790;18.268;2023-05-29T11:33:20;100894.91;;;28.44;32.75
40171;BME280;37650;52.790;18.268;2023-05-29T11:36:44;100900.52;;;28.61;32.21
40171;BME280;37650;52.790;18.268;2023-05-29T11:40:05;100899.09;;;28.23;31.47
40171;BME280;37650;52.790;18.268;2023-05-29T11:43:26;100895.61;;;27.40;32.04
40171;BME280;37650;52.790;18.268;2023-05-29T11:46:59;100902.89;;;26.79;32.69
40171;BME280;37650;52.790;18.268;2023-05-29T11:50:26;100908.20;;;26.35;33.10
40171;BME280;37650;52.790;18.268;2023-05-29T11:53:47;100901.78;;;26.19;33.27
40171;BME280;37650;52.790;18.268;2023-05-29T11:57:08;100900.75;;;26.34;33.70
40171;BME280;37650;52.790;18.268;2023-05-29T12:03:53;100883.11;;;27.21;32.37
40171;BME280;37650;52.790;18.268;2023-05-29T12:07:17;100885.18;;;27.18;32.26
40171;BME280;37650;52.790;18.268;2023-05-29T12:10:46;100887.54;;;26.81;32.52
40171;BME280;37650;52.790;18.268;2023-05-29T12:14:07;100894.36;;;26.44;33.01
40171;BME280;37650;52.790;18.268;2023-05-29T12:17:28;100893.02;;;26.24;32.97
40171;BME280;37650;52.790;18.268;2023-05-29T12:20:51;100888.88;;;25.96;32.76
40171;BME280;37650;52.790;18.268;2023-05-29T12:24:18;100882.78;;;25.80;32.76
40171;BME280;37650;52.790;18.268;2023-05-29T12:27:40;100886.13;;;26.00;32.41
40171;BME280;37650;52.790;18.268;2023-05-29T12:31:05;100884.25;;;26.52;32.57
40171;BME280;37650;52.790;18.268;2023-05-29T12:34:34;100885.33;;;26.98;31.50
40171;BME280;37650;52.790;18.268;2023-05-29T12:41:29;100878.00;;;27.14;30.42
40171;BME280;37650;52.790;18.268;2023-05-29T12:44:50;100874.78;;;27.03;30.07
40171;BME280;37650;52.790;18.268;2023-05-29T12:48:10;100873.70;;;27.10;30.82
40171;BME280;37650;52.790;18.268;2023-05-29T12:51:31;100876.37;;;27.51;30.67
40171;BME280;37650;52.790;18.268;2023-05-29T12:54:52;100877.38;;;27.58;30.14
40171;BME280;37650;52.790;18.268;2023-05-29T12:58:13;100873.55;;;27.23;29.60
40171;BME280;37650;52.790;18.268;2023-05-29T13:01:39;100865.40;;;27.03;30.00
40171;BME280;37650;52.790;18.268;2023-05-29T13:05:00;100870.45;;;26.89;29.64
40171;BME280;37650;52.790;18.268;2023-05-29T13:08:20;100862.98;;;26.99;29.69
40171;BME280;37650;52.790;18.268;2023-05-29T13:11:41;100862.09;;;27.24;29.82
40171;BME280;37650;52.790;18.268;2023-05-29T13:15:01;100858.33;;;27.43;29.11
40171;BME280;37650;52.790;18.268;2023-05-29T13:18:22;100852.84;;;27.41;29.37
40171;BME280;37650;52.790;18.268;2023-05-29T13:21:43;100850.01;;;27.49;29.40
40171;BME280;37650;52.790;18.268;2023-05-29T13:25:10;100849.31;;;27.67;29.30
40171;BME280;37650;52.790;18.268;2023-05-29T13:28:31;100850.04;;;27.49;28.47
40171;BME280;37650;52.790;18.268;2023-05-29T13:31:51;100847.80;;;26.99;28.85
40171;BME280;37650;52.790;18.268;2023-05-29T13:35:12;100845.05;;;26.87;29.23
40171;BME280;37650;52.790;18.268;2023-05-29T13:38:32;100853.41;;;26.47;28.65
40171;BME280;37650;52.790;18.268;2023-05-29T13:41:54;100853.64;;;26.05;28.86
40171;BME280;37650;52.790;18.268;2023-05-29T13:45:15;100853.42;;;25.54;28.97
40171;BME280;37650;52.790;18.268;2023-05-29T13:48:35;100855.84;;;25.24;29.55
40171;BME280;37650;52.790;18.268;2023-05-29T13:51:56;100854.48;;;25.42;30.21
40171;BME280;37650;52.790;18.268;2023-05-29T13:55:17;100845.10;;;25.66;30.10
40171;BME280;37650;52.790;18.268;2023-05-29T13:58:38;100846.98;;;26.11;30.15
40171;BME280;37650;52.790;18.268;2023-05-29T14:01:58;100840.67;;;26.21;29.26
40171;BME280;37650;52.790;18.268;2023-05-29T14:05:19;100844.73;;;26.14;29.16
40171;BME280;37650;52.790;18.268;2023-05-29T14:08:39;100843.64;;;26.02;29.05
40171;BME280;37650;52.790;18.268;2023-05-29T14:12:00;100839.77;;;26.22;29.41
40171;BME280;37650;52.790;18.268;2023-05-29T14:15:22;100849.83;;;26.60;29.13
40171;BME280;37650;52.790;18.268;2023-05-29T14:18:44;100852.36;;;26.26;27.95
40171;BME280;37650;52.790;18.268;2023-05-29T14:22:05;100852.20;;;25.65;28.25
40171;BME280;37650;52.790;18.268;2023-05-29T14:25:26;100849.55;;;25.35;28.82
40171;BME280;37650;52.790;18.268;2023-05-29T14:28:46;100846.84;;;25.49;29.04
40171;BME280;37650;52.790;18.268;2023-05-29T14:32:07;100844.94;;;25.31;29.21
40171;BME280;37650;52.790;18.268;2023-05-29T14:35:27;100843.85;;;25.43;29.66
40171;BME280;37650;52.790;18.268;2023-05-29T14:38:48;100841.98;;;25.45;29.30
40171;BME280;37650;52.790;18.268;2023-05-29T14:42:09;100839.20;;;25.35;29.07
40171;BME280;37650;52.790;18.268;2023-05-29T14:45:30;100837.45;;;25.11;29.37
40171;BME280;37650;52.790;18.268;2023-05-29T14:48:55;100839.38;;;24.97;29.25
40171;BME280;37650;52.790;18.268;2023-05-29T14:52:15;100835.78;;;24.81;29.76
40171;BME280;37650;52.790;18.268;2023-05-29T14:55:36;100834.29;;;24.90;29.85
40171;BME280;37650;52.790;18.268;2023-05-29T14:58:58;100834.09;;;24.92;29.71
40171;BME280;37650;52.790;18.268;2023-05-29T15:02:18;100827.29;;;24.78;29.70
40171;BME280;37650;52.790;18.268;2023-05-29T15:05:39;100826.70;;;24.87;30.12
40171;BME280;37650;52.790;18.268;2023-05-29T15:09:02;100826.02;;;24.91;30.23
40171;BME280;37650;52.790;18.268;2023-05-29T15:12:26;100826.40;;;24.90;30.31
40171;BME280;37650;52.790;18.268;2023-05-29T15:15:46;100825.98;;;24.87;30.11
40171;BME280;37650;52.790;18.268;2023-05-29T15:19:07;100822.86;;;24.69;30.19
40171;BME280;37650;52.790;18.268;2023-05-29T15:22:27;100819.64;;;24.49;29.89
40171;BME280;37650;52.790;18.268;2023-05-29T15:25:50;100820.61;;;24.34;30.42
40171;BME280;37650;52.790;18.268;2023-05-29T15:29:10;100821.14;;;24.20;30.67
40171;BME280;37650;52.790;18.268;2023-05-29T15:32:30;100820.34;;;24.04;30.70
40171;BME280;37650;52.790;18.268;2023-05-29T15:35:51;100816.86;;;23.91;30.55
40171;BME280;37650;52.790;18.268;2023-05-29T15:39:11;100819.23;;;23.77;30.34
40171;BME280;37650;52.790;18.268;2023-05-29T15:42:32;100818.85;;;23.78;30.98
40171;BME280;37650;52.790;18.268;2023-05-29T15:45:52;100821.89;;;23.80;30.47
40171;BME280;37650;52.790;18.268;2023-05-29T15:49:13;100815.80;;;23.78;30.38
40171;BME280;37650;52.790;18.268;2023-05-29T15:52:34;100817.75;;;23.74;30.53
40171;BME280;37650;52.790;18.268;2023-05-29T15:55:55;100816.48;;;23.74;30.83
40171;BME280;37650;52.790;18.268;2023-05-29T15:59:15;100820.45;;;23.76;30.72
40171;BME280;37650;52.790;18.268;2023-05-29T16:02:37;100815.20;;;23.70;30.85
40171;BME280;37650;52.790;18.268;2023-05-29T16:05:58;100812.26;;;23.65;31.08
40171;BME280;37650;52.790;18.268;2023-05-29T16:09:18;100810.88;;;23.56;30.99
40171;BME280;37650;52.790;18.268;2023-05-29T16:12:42;100810.83;;;23.48;31.08
40171;BME280;37650;52.790;18.268;2023-05-29T16:16:04;100810.45;;;23.33;31.31
40171;BME280;37650;52.790;18.268;2023-05-29T16:19:27;100811.14;;;23.12;31.22
40171;BME280;37650;52.790;18.268;2023-05-29T16:22:48;100811.15;;;23.01;31.57
40171;BME280;37650;52.790;18.268;2023-05-29T16:26:08;100811.63;;;22.82;31.48
40171;BME280;37650;52.790;18.268;2023-05-29T16:29:28;100808.96;;;22.64;31.69
40171;BME280;37650;52.790;18.268;2023-05-29T16:32:50;100806.13;;;22.48;32.06
40171;BME280;37650;52.790;18.268;2023-05-29T16:36:12;100809.08;;;22.34;32.00
40171;BME280;37650;52.790;18.268;2023-05-29T16:39:32;100810.67;;;22.20;32.18
40171;BME280;37650;52.790;18.268;2023-05-29T16:42:53;100810.30;;;22.16;32.37
40171;BME280;37650;52.790;18.268;2023-05-29T16:46:13;100813.21;;;22.09;32.46
40171;BME280;37650;52.790;18.268;2023-05-29T16:49:34;100819.64;;;22.02;32.70
40171;BME280;37650;52.790;18.268;2023-05-29T16:52:55;100815.79;;;21.91;33.10
40171;BME280;37650;52.790;18.268;2023-05-29T16:56:15;100824.85;;;21.85;33.52
40171;BME280;37650;52.790;18.268;2023-05-29T16:59:36;100827.05;;;21.80;33.66
40171;BME280;37650;52.790;18.268;2023-05-29T17:02:57;100820.55;;;21.74;33.71
40171;BME280;37650;52.790;18.268;2023-05-29T17:06:18;100821.77;;;21.63;33.59
40171;BME280;37650;52.790;18.268;2023-05-29T17:09:38;100822.45;;;21.54;33.56
40171;BME280;37650;52.790;18.268;2023-05-29T17:12:59;100819.89;;;21.47;33.85
40171;BME280;37650;52.790;18.268;2023-05-29T17:16:19;100817.36;;;21.38;34.12
40171;BME280;37650;52.790;18.268;2023-05-29T17:19:40;100814.69;;;21.31;34.32
40171;BME280;37650;52.790;18.268;2023-05-29T17:23:00;100819.18;;;21.24;34.12
40171;BME280;37650;52.790;18.268;2023-05-29T17:26:22;100821.38;;;21.13;34.42
40171;BME280;37650;52.790;18.268;2023-05-29T17:29:42;100822.58;;;21.04;34.80
40171;BME280;37650;52.790;18.268;2023-05-29T17:33:04;100822.52;;;20.93;35.14
40171;BME280;37650;52.790;18.268;2023-05-29T17:36:25;100824.31;;;20.75;35.19
40171;BME280;37650;52.790;18.268;2023-05-29T17:39:45;100824.48;;;20.58;35.42
40171;BME280;37650;52.790;18.268;2023-05-29T17:43:06;100825.98;;;20.45;35.67
40171;BME280;37650;52.790;18.268;2023-05-29T17:46:26;100829.45;;;20.39;36.08
40171;BME280;37650;52.790;18.268;2023-05-29T17:49:47;100832.55;;;20.33;36.32